Time;durP1;ratioP1;P1;durP2;ratioP2;P2;SDS_P1;SDS_P2;PMS_P1;PMS_P2;Temp;Humidity;BMP_temperature;BMP_pressure;BME280_temperature;BME280_humidity;BME280_pressure;Samples;Min_cycle;Max_cycle;Signal;HPM_P1;HPM_P2
2023/03/04 00:01:43;;;;;;;16.65;8.27;;;;;;;0.30;80.06;98630.41;5039958;28;20392;-82
2023/03/04 00:04:09;;;;;;;15.63;7.93;;;;;;;0.18;80.66;98632.19;5043948;28;20036;-82
2023/03/04 00:06:35;;;;;;;15.15;8.27;;;;;;;0.25;80.60;98635.09;5042632;28;20029;-82
2023/03/04 00:09:02;;;;;;;15.52;9.05;;;;;;;0.35;80.43;98638.56;5042402;28;20036;-82
2023/03/04 00:11:28;;;;;;;13.57;7.45;;;;;;;0.29;79.96;98633.06;5042935;28;20044;-82
2023/03/04 00:13:55;;;;;;;15.65;8.18;;;;;;;0.31;79.84;98632.03;5040925;28;20049;-82
2023/03/04 00:16:20;;;;;;;13.45;8.23;;;;;;;0.28;79.79;98628.88;5040637;28;20094;-82
2023/03/04 00:18:46;;;;;;;15.35;8.65;;;;;;;0.14;80.40;98623.03;5041708;28;20064;-82
2023/03/04 00:21:12;;;;;;;16.58;8.18;;;;;;;0.13;80.46;98626.56;5039945;28;20136;-82
2023/03/04 00:23:40;;;;;;;17.38;9.27;;;;;;;0.08;80.61;98626.09;5042373;28;20458;-82
2023/03/04 00:26:08;;;;;;;14.90;8.15;;;;;;;0.14;80.65;98624.81;5041925;28;20389;-82
2023/03/04 00:28:34;;;;;;;17.48;10.07;;;;;;;0.08;80.54;98630.44;5043167;28;20124;-82
2023/03/04 00:30:59;;;;;;;18.90;9.63;;;;;;;-0.04;80.87;98627.06;5043286;28;20490;-82
2023/03/04 00:33:25;;;;;;;16.60;8.90;;;;;;;-0.08;81.23;98629.06;5041255;28;20033;-82
2023/03/04 00:35:50;;;;;;;15.40;8.40;;;;;;;-0.12;81.72;98634.56;5041030;28;20040;-82
2023/03/04 00:38:16;;;;;;;18.00;8.93;;;;;;;-0.01;81.39;98632.78;5041318;28;20033;-82
2023/03/04 00:40:41;;;;;;;17.20;8.65;;;;;;;-0.06;81.28;98634.06;5041015;28;20116;-82
2023/03/04 00:43:07;;;;;;;16.95;8.85;;;;;;;-0.03;81.85;98636.44;5040821;28;20040;-82
2023/03/04 00:45:32;;;;;;;14.68;8.10;;;;;;;-0.01;81.67;98632.78;5040136;28;20110;-82
2023/03/04 00:47:58;;;;;;;15.75;9.48;;;;;;;-0.01;81.21;98631.97;5041400;28;20041;-82
2023/03/04 00:50:23;;;;;;;16.50;8.35;;;;;;;-0.11;81.79;98631.88;5041544;28;20175;-82
2023/03/04 00:52:49;;;;;;;16.95;8.65;;;;;;;-0.01;81.70;98631.97;5041011;28;20025;-82
2023/03/04 00:55:14;;;;;;;15.50;8.02;;;;;;;-0.04;81.42;98632.22;5042474;28;20068;-82
2023/03/04 00:57:40;;;;;;;14.70;7.70;;;;;;;-0.08;81.52;98639.38;5039917;28;20048;-82
2023/03/04 01:00:06;;;;;;;15.90;8.13;;;;;;;-0.31;82.12;98635.97;5041744;28;20043;-82
2023/03/04 01:02:31;;;;;;;14.88;7.90;;;;;;;-0.55;83.15;98633.50;5043414;28;20056;-82
2023/03/04 01:04:57;;;;;;;13.30;7.50;;;;;;;-0.46;83.45;98626.84;5041561;28;20040;-83
2023/03/04 01:07:22;;;;;;;14.70;8.32;;;;;;;-0.66;83.66;98625.81;5041032;28;20033;-82
2023/03/04 01:09:48;;;;;;;13.77;7.95;;;;;;;-0.73;84.28;98624.59;5041075;28;20037;-82
2023/03/04 01:12:13;;;;;;;17.35;7.32;;;;;;;-0.79;85.11;98625.06;5040506;28;20038;-82
2023/03/04 01:14:39;;;;;;;15.57;7.95;;;;;;;-0.91;85.71;98624.22;5041159;28;20057;-83
2023/03/04 01:17:04;;;;;;;17.45;8.40;;;;;;;-0.92;85.96;98622.59;5042341;28;20499;-82
2023/03/04 01:19:30;;;;;;;16.35;7.78;;;;;;;-0.91;86.43;98621.66;5041627;28;20033;-82
2023/03/04 01:21:55;;;;;;;16.83;8.50;;;;;;;-0.93;86.48;98613.22;5042249;28;20112;-82
2023/03/04 01:24:21;;;;;;;16.30;9.30;;;;;;;-0.92;86.35;98612.28;5040108;28;20087;-82
2023/03/04 01:26:46;;;;;;;17.58;8.68;;;;;;;-0.92;86.11;98624.34;5044683;28;20044;-82
2023/03/04 01:29:12;;;;;;;16.77;8.88;;;;;;;-0.98;86.74;98619.66;5042372;28;20040;-83
2023/03/04 01:31:37;;;;;;;14.20;7.38;;;;;;;-1.05;86.51;98614.13;5040907;28;20068;-82
2023/03/04 01:34:03;;;;;;;16.50;8.35;;;;;;;-1.06;86.61;98611.69;5042160;28;20033;-82
2023/03/04 01:36:28;;;;;;;15.60;8.35;;;;;;;-1.08;86.88;98610.06;5040510;28;20055;-82
2023/03/04 01:38:55;;;;;;;15.85;8.30;;;;;;;-1.08;86.86;98604.06;5042047;28;20087;-82
2023/03/04 01:41:25;;;;;;;12.02;7.43;;;;;;;-1.14;86.87;98605.34;5040203;28;20037;-82
2023/03/04 01:43:56;;;;;;;13.18;8.10;;;;;;;-1.28;87.42;98599.56;5040465;28;20106;-82
2023/03/04 01:46:23;;;;;;;14.05;7.55;;;;;;;-1.36;87.93;98600.94;5038720;28;20119;-82
2023/03/04 01:48:49;;;;;;;14.70;7.43;;;;;;;-1.40;88.19;98598.72;5041332;28;20045;-83
2023/03/04 01:51:18;;;;;;;13.38;7.55;;;;;;;-1.44;88.22;98597.28;5044238;28;20060;-82
2023/03/04 01:53:49;;;;;;;13.13;7.50;;;;;;;-1.47;88.51;98595.75;5045803;28;20477;-82
2023/03/04 01:56:36;;;;;;;13.40;7.13;;;;;;;-1.50;88.82;98592.59;5056052;28;20069;-82
2023/03/04 01:59:20;;;;;;;15.68;7.10;;;;;;;-1.39;88.19;98596.00;5045186;28;20086;-82
2023/03/04 02:01:55;;;;;;;13.13;7.05;;;;;;;-1.19;88.02;98586.84;5044863;28;20073;-82
2023/03/04 02:04:28;;;;;;;14.88;7.10;;;;;;;-1.26;87.46;98595.97;5056486;28;20037;-82
2023/03/04 02:06:56;;;;;;;13.73;7.30;;;;;;;-1.38;87.74;98592.53;5044692;28;20040;-82
2023/03/04 02:09:22;;;;;;;14.50;7.97;;;;;;;-1.46;87.82;98581.97;5045624;28;20037;-82
2023/03/04 02:11:50;;;;;;;13.25;7.95;;;;;;;-1.37;87.85;98583.88;5044694;28;20183;-82
2023/03/04 02:14:17;;;;;;;13.35;7.38;;;;;;;-1.32;87.38;98583.50;5045923;28;20652;-83
2023/03/04 02:16:43;;;;;;;14.15;8.02;;;;;;;-1.19;87.21;98591.19;5044680;28;20040;-82
2023/03/04 02:19:20;;;;;;;13.68;7.70;;;;;;;-1.19;87.02;98589.41;5045618;28;20044;-82
2023/03/04 02:21:46;;;;;;;14.18;7.55;;;;;;;-1.14;86.60;98578.75;5041935;28;20533;-83
2023/03/04 02:24:28;;;;;;;15.90;7.85;;;;;;;-1.21;86.24;98575.00;5044723;28;20117;-82
2023/03/04 02:26:54;;;;;;;13.35;7.03;;;;;;;-1.17;86.04;98579.00;5045507;28;20040;-82
2023/03/04 02:29:19;;;;;;;14.10;7.32;;;;;;;-1.20;86.03;98577.50;5045451;28;20033;-83
2023/03/04 02:31:49;;;;;;;12.15;6.88;;;;;;;-1.24;85.54;98577.81;5042712;28;20047;-82
2023/03/04 02:34:19;;;;;;;13.32;7.60;;;;;;;-1.24;85.89;98575.25;5045043;28;20770;-82
2023/03/04 02:36:47;;;;;;;14.15;7.28;;;;;;;-1.22;85.66;98574.19;5043669;28;20037;-82
2023/03/04 02:39:19;;;;;;;14.75;7.35;;;;;;;-1.21;85.52;98569.88;5043135;28;20519;-82
2023/03/04 02:41:46;;;;;;;13.15;7.05;;;;;;;-1.16;85.59;98570.34;5044846;28;20090;-83
2023/03/04 02:44:28;;;;;;;15.02;7.45;;;;;;;-0.92;85.46;98559.97;5043340;28;20495;-83
2023/03/04 02:46:55;;;;;;;12.98;7.15;;;;;;;-0.86;84.57;98568.03;5039721;28;20056;-82
2023/03/04 02:49:23;;;;;;;13.30;7.30;;;;;;;-0.83;84.39;98569.59;5043910;28;20037;-83
2023/03/04 02:52:01;;;;;;;13.13;7.15;;;;;;;-0.74;83.95;98566.28;5042783;28;21147;-83
2023/03/04 02:54:27;;;;;;;13.98;7.13;;;;;;;-0.72;83.41;98563.59;5042445;28;20107;-82
2023/03/04 02:56:57;;;;;;;14.85;7.10;;;;;;;-0.56;83.59;98566.66;5042146;28;20077;-83
2023/03/04 02:59:23;;;;;;;15.23;8.43;;;;;;;-0.53;82.96;98560.47;5041184;28;20036;-83
2023/03/04 03:01:50;;;;;;;15.27;7.85;;;;;;;-0.43;82.61;98569.09;5042790;28;20043;-82
2023/03/04 03:04:16;;;;;;;15.18;8.77;;;;;;;-0.58;83.28;98561.63;5043680;28;20106;-82
2023/03/04 03:06:42;;;;;;;15.25;8.23;;;;;;;-0.46;83.30;98570.16;5054574;28;20407;-82
2023/03/04 03:09:08;;;;;;;15.90;7.65;;;;;;;-0.42;82.94;98566.41;5047120;28;20036;-82
2023/03/04 03:11:34;;;;;;;15.82;8.95;;;;;;;-0.30;82.71;98565.47;5042765;28;20496;-82
2023/03/04 03:14:01;;;;;;;17.95;8.30;;;;;;;-0.31;82.24;98558.66;5043646;28;20076;-82
2023/03/04 03:16:27;;;;;;;16.15;8.98;;;;;;;-0.32;82.07;98569.09;5042134;28;20103;-82
2023/03/04 03:18:52;;;;;;;15.75;8.52;;;;;;;-0.45;82.49;98561.50;5042368;28;20166;-82
2023/03/04 03:21:18;;;;;;;17.27;9.70;;;;;;;-0.46;83.01;98564.19;5044684;28;20594;-82
2023/03/04 03:23:44;;;;;;;20.50;9.30;;;;;;;-0.36;82.91;98565.09;5043111;28;20396;-83
2023/03/04 03:26:09;;;;;;;17.70;9.38;;;;;;;-0.43;83.54;98559.59;5044190;28;20486;-82
2023/03/04 03:28:35;;;;;;;14.85;8.73;;;;;;;-0.18;83.84;98573.16;5045224;28;20037;-82
2023/03/04 03:31:01;;;;;;;17.58;8.55;;;;;;;-0.32;84.30;98562.16;5044377;28;20676;-82
2023/03/04 03:33:27;;;;;;;20.00;9.25;;;;;;;-0.52;84.97;98562.91;5044609;28;20048;-82
2023/03/04 03:35:52;;;;;;;16.08;9.23;;;;;;;-0.42;85.32;98573.31;5042131;28;20033;-82
2023/03/04 03:38:18;;;;;;;14.85;7.45;;;;;;;-0.30;85.22;98560.31;5042599;28;20083;-82
2023/03/04 03:40:43;;;;;;;18.92;8.82;;;;;;;-0.15;84.96;98567.78;5042119;28;20036;-83
2023/03/04 03:43:10;;;;;;;16.02;8.57;;;;;;;-0.09;84.36;98567.28;5040651;28;20036;-82
2023/03/04 03:45:35;;;;;;;15.05;8.05;;;;;;;-0.20;84.58;98560.38;5040438;28;20033;-82
2023/03/04 03:48:01;;;;;;;12.43;7.25;;;;;;;-0.15;84.67;98562.63;5042374;28;20605;-82
2023/03/04 03:50:28;;;;;;;13.50;7.28;;;;;;;-0.06;84.77;98562.72;5041842;28;20044;-83
2023/03/04 03:52:53;;;;;;;14.82;8.18;;;;;;;-0.08;84.51;98574.91;5041176;28;20063;-82
2023/03/04 03:55:21;;;;;;;16.33;8.98;;;;;;;-0.27;85.70;98572.94;5041089;28;20116;-82
2023/03/04 03:57:46;;;;;;;15.57;8.27;;;;;;;-0.37;85.67;98569.44;5042634;28;20036;-82
2023/03/04 04:00:13;;;;;;;16.15;8.13;;;;;;;-0.27;86.30;98561.81;5043493;28;20472;-82
2023/03/04 04:02:39;;;;;;;16.73;7.50;;;;;;;-0.31;86.11;98573.28;5044168;28;20044;-82
2023/03/04 04:05:06;;;;;;;19.50;9.85;;;;;;;-0.22;86.05;98576.94;5043109;28;20044;-82
2023/03/04 04:07:32;;;;;;;18.30;8.75;;;;;;;-0.16;85.99;98577.28;5042505;28;20068;-82
2023/03/04 04:09:57;;;;;;;16.05;8.55;;;;;;;-0.12;86.05;98581.25;5042915;28;20144;-82
2023/03/04 04:12:23;;;;;;;17.60;8.30;;;;;;;-0.22;86.29;98587.25;5042030;28;20038;-82
2023/03/04 04:14:48;;;;;;;18.02;9.05;;;;;;;-0.21;86.59;98579.38;5040264;28;20048;-83
2023/03/04 04:17:14;;;;;;;16.77;8.18;;;;;;;-0.12;86.11;98585.56;5041622;28;20091;-83
2023/03/04 04:19:40;;;;;;;14.85;7.82;;;;;;;-0.09;86.49;98582.75;5057855;28;20031;-82
2023/03/04 04:22:12;;;;;;;13.45;7.65;;;;;;;-0.12;86.47;98577.84;5042051;28;20029;-82
2023/03/04 04:24:37;;;;;;;19.40;9.43;;;;;;;-0.11;86.54;98587.22;5041942;28;20028;-82
2023/03/04 04:27:03;;;;;;;16.73;8.52;;;;;;;-0.10;86.97;98587.09;5042373;28;20040;-82
2023/03/04 04:29:29;;;;;;;13.93;7.18;;;;;;;-0.07;86.67;98580.88;5042212;28;20036;-82
2023/03/04 04:31:55;;;;;;;15.18;8.00;;;;;;;0.12;86.14;98586.25;5041205;28;20041;-82
2023/03/04 04:34:20;;;;;;;16.58;8.10;;;;;;;0.31;85.36;98587.34;5042794;28;20469;-82
2023/03/04 04:36:47;;;;;;;16.13;7.65;;;;;;;0.22;85.34;98584.53;5041396;28;20033;-83
2023/03/04 04:39:13;;;;;;;18.13;8.45;;;;;;;0.28;84.83;98577.25;5040837;28;20081;-82
2023/03/04 04:41:41;;;;;;;18.15;8.80;;;;;;;0.21;84.82;98580.34;5040992;28;20407;-82
2023/03/04 04:44:09;;;;;;;17.73;9.05;;;;;;;0.24;84.64;98585.25;5041121;28;20115;-82
2023/03/04 04:46:34;;;;;;;15.23;8.07;;;;;;;0.39;84.85;98578.03;5038444;28;20086;-82
2023/03/04 04:49:00;;;;;;;14.45;8.07;;;;;;;0.50;84.43;98585.75;5042827;28;20045;-83
2023/03/04 04:51:27;;;;;;;16.48;8.80;;;;;;;0.60;83.56;98587.56;5040649;28;20037;-82
2023/03/04 04:53:53;;;;;;;16.55;9.38;;;;;;;0.30;83.92;98576.22;5045599;28;20507;-82
2023/03/04 04:56:25;;;;;;;19.23;9.73;;;;;;;0.06;85.09;98586.72;5041580;28;20112;-82
2023/03/04 04:58:53;;;;;;;19.27;9.07;;;;;;;-0.04;86.11;98576.31;5041602;28;20480;-83
2023/03/04 05:01:19;;;;;;;19.20;9.00;;;;;;;0.16;85.95;98589.38;5042159;28;20033;-82
2023/03/04 05:03:45;;;;;;;19.15;8.88;;;;;;;0.05;86.07;98587.63;5040461;28;20045;-82
2023/03/04 05:06:12;;;;;;;19.17;9.32;;;;;;;-0.05;86.73;98584.16;5041985;28;20033;-82
2023/03/04 05:08:38;;;;;;;16.35;9.20;;;;;;;-0.16;87.29;98581.59;5041725;28;20065;-82
2023/03/04 05:11:05;;;;;;;15.70;9.05;;;;;;;-0.24;87.66;98594.25;5040781;28;20040;-82
2023/03/04 05:13:31;;;;;;;21.10;10.82;;;;;;;-0.36;88.52;98591.72;5042122;28;20053;-82
2023/03/04 05:15:57;;;;;;;22.95;11.48;;;;;;;-0.46;88.86;98566.78;5043599;28;20106;-82
2023/03/04 05:18:25;;;;;;;22.25;10.05;;;;;;;-0.41;89.30;98586.09;5042611;28;20044;-82
2023/03/04 05:20:57;;;;;;;21.42;10.55;;;;;;;-0.39;89.41;98591.94;5041618;28;20041;-82
2023/03/04 05:23:25;;;;;;;28.25;13.90;;;;;;;-0.48;89.90;98592.66;5052467;28;20036;-82
2023/03/04 05:25:51;;;;;;;22.05;11.02;;;;;;;-0.56;90.01;98582.09;5041977;28;20041;-82
2023/03/04 05:28:17;;;;;;;21.52;10.35;;;;;;;-0.37;90.21;98589.25;5044966;28;20036;-82
2023/03/04 05:30:44;;;;;;;25.13;10.60;;;;;;;-0.41;90.00;98583.50;5045305;28;20045;-82
2023/03/04 05:33:12;;;;;;;18.65;9.23;;;;;;;-0.28;90.00;98588.53;5047067;28;20537;-82
2023/03/04 05:35:39;;;;;;;20.98;11.88;;;;;;;-0.36;89.81;98590.88;5043931;28;20045;-82
2023/03/04 05:38:08;;;;;;;20.20;9.73;;;;;;;-0.48;89.98;98581.50;5058290;28;20041;-82
2023/03/04 05:40:35;;;;;;;20.08;10.30;;;;;;;-0.41;90.11;98587.84;5043522;28;20033;-82
2023/03/04 05:43:01;;;;;;;16.50;8.68;;;;;;;-0.35;90.54;98588.19;5044682;28;20095;-82
2023/03/04 05:45:26;;;;;;;22.30;10.52;;;;;;;-0.34;90.29;98579.53;5042539;28;20493;-82
2023/03/04 05:47:53;;;;;;;18.08;8.82;;;;;;;-0.20;90.21;98588.75;5045001;28;20040;-83
2023/03/04 05:50:22;;;;;;;19.60;9.85;;;;;;;-0.17;89.85;98590.28;5045468;28;20063;-83
2023/03/04 05:52:49;;;;;;;21.75;10.35;;;;;;;-0.19;89.71;98592.97;5043882;28;20111;-82
2023/03/04 05:55:16;;;;;;;26.30;10.98;;;;;;;-0.14;89.84;98585.69;5046062;28;20033;-82
2023/03/04 05:57:42;;;;;;;22.65;9.93;;;;;;;-0.16;89.58;98590.16;5044812;28;20029;-82
2023/03/04 06:00:12;;;;;;;13.63;7.00;;;;;;;-0.03;89.58;98601.16;5045027;28;20373;-82
2023/03/04 06:02:38;;;;;;;19.15;8.80;;;;;;;-0.07;89.77;98596.34;5046604;28;20067;-82
2023/03/04 06:05:04;;;;;;;19.17;9.27;;;;;;;-0.14;89.57;98600.34;5044708;28;20484;-82
2023/03/04 06:07:30;;;;;;;22.95;10.20;;;;;;;-0.25;90.17;98603.75;5044250;28;20053;-82
2023/03/04 06:09:56;;;;;;;21.35;9.13;;;;;;;-0.16;90.08;98599.66;5045498;28;20477;-82
2023/03/04 06:12:22;;;;;;;23.95;12.23;;;;;;;-0.24;90.27;98600.25;5044146;28;20074;-82
2023/03/04 06:14:47;;;;;;;22.45;10.48;;;;;;;-0.28;90.43;98609.16;5042887;28;20041;-82
2023/03/04 06:17:13;;;;;;;19.75;9.63;;;;;;;-0.31;90.68;98602.47;5044983;28;20041;-82
2023/03/04 06:19:40;;;;;;;21.15;9.38;;;;;;;-0.25;90.71;98608.09;5044746;28;20048;-82
2023/03/04 06:22:09;;;;;;;19.83;9.23;;;;;;;-0.19;90.49;98608.44;5044955;28;20350;-82
2023/03/04 06:24:35;;;;;;;22.70;10.68;;;;;;;-0.22;90.40;98603.53;5044335;28;20449;-82
2023/03/04 06:27:01;;;;;;;22.02;11.20;;;;;;;-0.19;90.47;98610.19;5043664;28;20144;-82
2023/03/04 06:29:27;;;;;;;22.85;10.45;;;;;;;-0.27;90.29;98606.47;5044030;28;20116;-82
2023/03/04 06:31:52;;;;;;;21.40;9.32;;;;;;;-0.19;90.49;98613.59;5045162;28;20037;-82
2023/03/04 06:34:18;;;;;;;21.23;10.95;;;;;;;-0.25;90.18;98618.41;5043791;28;20033;-82
2023/03/04 06:36:44;;;;;;;19.90;9.80;;;;;;;-0.17;90.14;98619.47;5043044;28;20052;-82
2023/03/04 06:39:10;;;;;;;18.30;8.80;;;;;;;-0.15;89.57;98622.72;5043232;28;20048;-82
2023/03/04 06:41:36;;;;;;;20.27;9.20;;;;;;;-0.13;89.42;98630.34;5042517;28;20041;-82
2023/03/04 06:44:02;;;;;;;19.60;9.70;;;;;;;-0.01;89.52;98624.22;5043568;28;20048;-81
2023/03/04 06:46:27;;;;;;;23.50;11.02;;;;;;;0.01;89.08;98624.13;5040682;28;20072;-82
2023/03/04 06:48:53;;;;;;;18.10;9.40;;;;;;;0.08;88.51;98626.09;5043549;28;20041;-82
2023/03/04 06:51:18;;;;;;;25.40;11.15;;;;;;;0.05;88.59;98631.47;5041754;28;20029;-82
2023/03/04 06:53:44;;;;;;;20.13;8.90;;;;;;;0.15;88.23;98637.56;5042934;28;20029;-82
2023/03/04 06:56:14;;;;;;;18.42;8.55;;;;;;;0.41;87.64;98637.25;5043334;28;20035;-82
2023/03/04 06:58:41;;;;;;;20.17;8.90;;;;;;;0.60;86.80;98632.28;5042504;28;20958;-82
2023/03/04 07:01:17;;;;;;;20.17;8.85;;;;;;;0.52;85.79;98637.22;5042399;28;20040;-82
2023/03/04 07:03:43;;;;;;;23.20;9.35;;;;;;;0.53;85.99;98633.69;5044879;28;20054;-82
2023/03/04 07:06:11;;;;;;;19.63;9.18;;;;;;;0.38;85.77;98634.94;5042840;28;20040;-82
2023/03/04 07:08:36;;;;;;;21.55;10.20;;;;;;;0.55;86.11;98637.00;5043982;28;20072;-82
2023/03/04 07:11:02;;;;;;;22.85;10.65;;;;;;;0.61;85.77;98644.25;5036419;28;20576;-82
2023/03/04 07:13:27;;;;;;;17.52;9.20;;;;;;;0.58;85.74;98647.06;5043891;28;20050;-82
2023/03/04 07:15:53;;;;;;;20.02;9.68;;;;;;;0.74;85.64;98650.06;5041115;28;20043;-83
2023/03/04 07:18:19;;;;;;;21.58;10.35;;;;;;;0.66;85.21;98636.97;5046047;28;20507;-82
2023/03/04 07:20:45;;;;;;;22.40;10.68;;;;;;;0.81;85.08;98642.63;5042575;28;20520;-82
2023/03/04 07:23:10;;;;;;;22.60;10.80;;;;;;;0.82;84.63;98648.63;5045153;28;20032;-82
2023/03/04 07:25:36;;;;;;;22.98;10.80;;;;;;;0.86;84.71;98647.44;5043716;28;20036;-82
2023/03/04 07:28:01;;;;;;;23.17;10.00;;;;;;;0.97;84.51;98652.53;5042656;28;20044;-82
2023/03/04 07:30:27;;;;;;;20.80;9.77;;;;;;;1.06;84.13;98656.94;5040178;28;20120;-82
2023/03/04 07:32:56;;;;;;;23.17;11.32;;;;;;;0.85;84.08;98650.97;5044554;28;20037;-82
2023/03/04 07:35:22;;;;;;;19.73;9.63;;;;;;;0.83;84.05;98652.84;5042354;28;20037;-82
2023/03/04 07:37:47;;;;;;;19.65;10.20;;;;;;;0.87;83.98;98649.06;5040515;28;20117;-82
2023/03/04 07:40:13;;;;;;;22.55;11.45;;;;;;;0.76;84.45;98657.69;5042623;28;20093;-82
2023/03/04 07:42:38;;;;;;;23.77;10.70;;;;;;;0.96;84.40;98651.72;5041340;28;20044;-82
2023/03/04 07:45:05;;;;;;;19.65;10.50;;;;;;;0.98;83.86;98651.59;5039692;28;20033;-82
2023/03/04 07:47:30;;;;;;;21.23;9.43;;;;;;;0.98;83.24;98655.00;5040216;28;20726;-82
2023/03/04 07:49:56;;;;;;;23.67;10.48;;;;;;;1.13;83.89;98659.84;5040461;28;20045;-82
2023/03/04 07:52:22;;;;;;;23.60;10.45;;;;;;;1.13;82.95;98659.84;5041705;28;20040;-82
2023/03/04 07:54:47;;;;;;;23.67;11.82;;;;;;;1.00;82.48;98665.19;5043066;28;20037;-82
2023/03/04 07:57:13;;;;;;;22.83;11.43;;;;;;;0.91;82.93;98663.38;5041030;28;20108;-82
2023/03/04 07:59:38;;;;;;;19.45;10.32;;;;;;;1.23;82.85;98658.16;5040171;28;20485;-82
2023/03/04 08:02:04;;;;;;;20.95;9.77;;;;;;;1.12;82.17;98653.84;5039793;28;20087;-82
2023/03/04 08:04:29;;;;;;;21.73;10.55;;;;;;;1.16;82.66;98663.00;5042022;28;20408;-82
2023/03/04 08:06:55;;;;;;;24.02;11.68;;;;;;;1.15;82.67;98661.38;5040227;28;20040;-82
2023/03/04 08:09:20;;;;;;;20.25;10.32;;;;;;;1.20;81.84;98666.97;5040899;28;20037;-82
2023/03/04 08:11:46;;;;;;;24.02;11.15;;;;;;;1.19;81.11;98664.50;5039671;28;20037;-82
2023/03/04 08:14:12;;;;;;;21.02;9.93;;;;;;;1.27;81.39;98652.59;5038949;28;20046;-82
2023/03/04 08:16:39;;;;;;;21.33;11.02;;;;;;;1.43;80.29;98656.47;5042128;28;20116;-82
2023/03/04 08:19:06;;;;;;;19.80;9.68;;;;;;;1.57;79.77;98648.41;5045332;28;20468;-82
2023/03/04 08:21:32;;;;;;;26.23;10.57;;;;;;;1.49;79.67;98645.63;5043206;28;20037;-82
2023/03/04 08:24:06;;;;;;;22.75;10.43;;;;;;;1.64;80.31;98648.72;5040434;28;20090;-82
2023/03/04 08:26:37;;;;;;;22.92;12.15;;;;;;;1.60;79.35;98642.97;5042433;28;20033;-81
2023/03/04 08:29:04;;;;;;;23.40;10.77;;;;;;;1.73;79.54;98650.50;5041811;28;20036;-82
2023/03/04 08:31:31;;;;;;;21.70;10.45;;;;;;;1.77;78.07;98644.13;5038926;28;20431;-82
2023/03/04 08:33:57;;;;;;;21.23;11.57;;;;;;;1.65;77.55;98648.56;5037753;28;20167;-82
2023/03/04 08:36:22;;;;;;;19.55;10.18;;;;;;;1.62;77.26;98646.25;5040128;28;20489;-82
2023/03/04 08:38:48;;;;;;;25.13;12.07;;;;;;;1.66;78.14;98639.03;5041049;28;20160;-81
2023/03/04 08:41:14;;;;;;;23.58;12.20;;;;;;;1.50;77.34;98642.09;5041915;28;20037;-81
2023/03/04 08:43:41;;;;;;;21.67;10.68;;;;;;;1.53;77.96;98647.03;5040715;28;20065;-82
2023/03/04 08:46:07;;;;;;;20.63;10.85;;;;;;;1.66;77.75;98647.63;5042747;28;20032;-82
2023/03/04 08:48:35;;;;;;;20.48;11.40;;;;;;;1.54;77.31;98635.72;5040199;28;20041;-82
2023/03/04 08:51:05;;;;;;;20.98;10.65;;;;;;;1.76;77.15;98642.50;5040253;28;20041;-82
2023/03/04 08:53:30;;;;;;;21.13;10.85;;;;;;;1.77;77.03;98649.31;5041027;28;20072;-82
2023/03/04 08:55:56;;;;;;;23.50;11.52;;;;;;;1.83;76.32;98646.19;5040519;28;20060;-82
2023/03/04 08:58:21;;;;;;;19.92;11.43;;;;;;;1.68;75.91;98645.75;5041129;28;20029;-82
2023/03/04 09:00:50;;;;;;;21.25;9.48;;;;;;;1.76;75.76;98656.25;5043037;28;20032;-82
2023/03/04 09:03:18;;;;;;;21.98;10.85;;;;;;;1.74;75.87;98662.47;5042786;28;20048;-82
2023/03/04 09:05:46;;;;;;;24.63;11.23;;;;;;;1.71;75.78;98655.81;5043156;28;20041;-82
2023/03/04 09:08:12;;;;;;;17.35;9.70;;;;;;;1.84;75.96;98653.81;5046521;28;20036;-82
2023/03/04 09:10:38;;;;;;;16.90;9.60;;;;;;;2.01;75.52;98654.16;5043895;28;20042;-82
2023/03/04 09:13:05;;;;;;;21.40;11.52;;;;;;;2.06;74.69;98654.56;5041919;28;20041;-82
2023/03/04 09:15:34;;;;;;;16.73;10.55;;;;;;;2.17;73.86;98659.66;5040563;28;20045;-81
2023/03/04 09:18:03;;;;;;;16.75;9.27;;;;;;;2.31;74.15;98658.44;5046134;28;20058;-81
2023/03/04 09:20:29;;;;;;;18.42;12.13;;;;;;;2.31;73.09;98655.84;5045825;28;20037;-81
2023/03/04 09:22:55;;;;;;;20.63;10.70;;;;;;;2.14;73.13;98657.31;5045725;28;20047;-82
2023/03/04 09:25:20;;;;;;;21.50;10.82;;;;;;;2.34;72.98;98664.19;5045226;28;20044;-82
2023/03/04 09:27:46;;;;;;;21.63;10.88;;;;;;;2.38;72.46;98656.97;5044289;28;20452;-82
2023/03/04 09:30:12;;;;;;;17.75;9.23;;;;;;;2.37;73.03;98660.50;5043493;28;20094;-81
2023/03/04 09:32:40;;;;;;;21.98;12.80;;;;;;;2.24;72.57;98668.53;5041156;28;20463;-82
2023/03/04 09:35:07;;;;;;;20.98;11.85;;;;;;;2.22;73.28;98665.25;5044940;28;20029;-82
2023/03/04 09:37:33;;;;;;;19.00;11.57;;;;;;;2.12;73.06;98669.56;5044427;28;20037;-81
2023/03/04 09:39:58;;;;;;;23.40;11.25;;;;;;;2.11;72.92;98671.34;5042983;28;20541;-82
2023/03/04 09:42:32;;;;;;;21.98;11.23;;;;;;;2.14;73.00;98660.72;5043785;28;20039;-82
2023/03/04 09:44:58;;;;;;;23.10;11.77;;;;;;;2.28;73.43;98669.91;5044632;28;20047;-82
2023/03/04 09:47:25;;;;;;;24.85;11.68;;;;;;;2.58;73.33;98673.31;5041123;28;20033;-82
2023/03/04 09:50:06;;;;;;;22.55;11.48;;;;;;;2.52;72.11;98660.91;5043938;28;20086;-82
2023/03/04 09:53:10;;;;;;;;;;;;;;;2.66;72.17;98671.72;5044283;28;20048;-82
2023/03/04 09:55:51;;;;;;;16.52;9.70;;;;;;;2.80;71.22;98665.31;5059028;28;20331;-82
2023/03/04 09:58:52;;;;;;;19.95;10.93;;;;;;;2.76;70.45;98676.06;5059172;28;20106;-82
2023/03/04 10:01:35;;;;;;;21.60;11.25;;;;;;;2.85;71.29;98668.31;5021872;28;20047;-82
2023/03/04 10:04:30;;;;;;;19.52;10.50;;;;;;;2.78;70.33;98656.84;5041092;28;20037;-82
2023/03/04 10:06:56;;;;;;;20.88;11.52;;;;;;;2.95;70.21;98652.78;5061440;28;20045;-82
2023/03/04 10:09:46;;;;;;;19.73;10.68;;;;;;;2.82;70.17;98641.84;5046446;28;20103;-82
2023/03/04 10:12:16;;;;;;;23.80;12.73;;;;;;;2.78;70.55;98641.31;5043349;28;20548;-82
2023/03/04 10:14:50;;;;;;;21.70;10.27;;;;;;;2.97;70.47;98645.66;5042035;28;20077;-82
2023/03/04 10:17:22;;;;;;;20.13;11.02;;;;;;;2.90;69.92;98650.59;5042340;28;20041;-82
2023/03/04 10:20:17;;;;;;;19.50;12.45;;;;;;;2.63;69.83;98637.50;5042498;28;20067;-82
2023/03/04 10:22:49;;;;;;;18.60;10.43;;;;;;;2.73;70.71;98643.50;5043526;28;20124;-82
2023/03/04 10:25:27;;;;;;;19.38;12.88;;;;;;;2.65;70.39;98649.38;5043243;28;20095;-82
2023/03/04 10:28:03;;;;;;;21.17;11.82;;;;;;;2.80;70.29;98644.56;5042965;28;20064;-81
2023/03/04 10:31:00;;;;;;;21.20;11.63;;;;;;;2.95;70.32;98645.81;5056244;28;20041;-82
2023/03/04 10:33:34;;;;;;;21.70;10.82;;;;;;;2.85;69.46;98632.03;5043546;28;20485;-82
2023/03/04 10:36:31;;;;;;;16.52;11.07;;;;;;;2.91;69.44;98636.66;5040144;28;20036;-81
2023/03/04 10:39:17;;;;;;;19.77;10.95;;;;;;;2.88;69.33;98644.72;5042111;28;20086;-82
2023/03/04 10:41:53;;;;;;;20.60;10.85;;;;;;;3.09;69.38;98641.16;5042025;28;20064;-82
2023/03/04 10:44:19;;;;;;;21.88;11.88;;;;;;;3.16;69.38;98631.84;5043952;28;20045;-82
2023/03/04 10:46:48;;;;;;;21.30;11.30;;;;;;;2.95;68.76;98638.03;5039053;28;20033;-82
2023/03/04 10:49:18;;;;;;;19.98;10.50;;;;;;;3.04;68.43;98640.75;5042821;28;20437;-82
2023/03/04 10:52:03;;;;;;;18.13;13.35;;;;;;;2.92;68.85;98643.47;5043074;28;20025;-82
2023/03/04 10:54:53;;;;;;;22.25;11.90;;;;;;;2.91;69.70;98633.25;5043387;28;20033;-82
2023/03/04 10:57:36;;;;;;;16.52;10.57;;;;;;;2.86;69.01;98644.03;5043609;28;20036;-82
2023/03/04 11:00:17;;;;;;;18.95;11.50;;;;;;;2.84;69.20;98635.59;5039231;28;20033;-82
2023/03/04 11:02:45;;;;;;;22.05;11.70;;;;;;;2.71;69.21;98640.22;5041664;28;20045;-82
2023/03/04 11:05:16;;;;;;;21.42;10.60;;;;;;;2.68;69.52;98633.53;5042933;28;20098;-82
2023/03/04 11:07:53;;;;;;;19.42;11.20;;;;;;;2.83;69.57;98633.97;5041555;28;20156;-82
2023/03/04 11:10:27;;;;;;;20.52;13.77;;;;;;;2.77;69.33;98634.50;5044376;28;20037;-81
2023/03/04 11:13:11;;;;;;;16.98;10.43;;;;;;;2.76;70.12;98632.03;5044220;28;20045;-82
2023/03/04 11:16:02;;;;;;;19.40;11.43;;;;;;;2.80;70.13;98634.22;5040266;28;20044;-82
2023/03/04 11:18:48;;;;;;;19.58;11.57;;;;;;;2.72;69.50;98636.69;5040522;28;20033;-82
2023/03/04 11:21:21;;;;;;;17.90;11.25;;;;;;;2.77;69.73;98625.91;5042978;28;20569;-82
2023/03/04 11:23:56;;;;;;;23.10;12.65;;;;;;;2.83;69.40;98631.38;5041969;28;20060;-82
2023/03/04 11:26:35;;;;;;;22.83;13.02;;;;;;;2.79;69.18;98632.59;5039901;28;20033;-82
2023/03/04 11:29:20;;;;;;;19.40;11.52;;;;;;;2.76;69.22;98632.88;5040364;28;20086;-82
2023/03/04 11:31:57;;;;;;;20.13;12.38;;;;;;;2.72;69.29;98626.31;5041969;28;20035;-82
2023/03/04 11:34:40;;;;;;;19.90;11.43;;;;;;;2.67;69.24;98625.91;5041066;28;20099;-82